»·PEaware :: N121HE KVNY-KTOA

N121HE :: KVNY-KTOA

FLIGHT INFORMATION

Flight Status: Arrived
Operator: Privately registered:
United States
More flights under this callsign
Pilot: Cannon L. (16231)
Aircraft: COLUMBIA 400
(COL4)
More flights by this aircraft type
Origin: KVNY Van Nuys
United States
Destination: KTOA Zamperini
United States
More flights between these airports :: More routes between these airports
Route: +ADAMM2 ADAMM V394 SLI
File this flight plan on PilotEdge
Remarks:
Altitude:
(Current/Filed)
5,000ft
Speed:
(Current/Filed)
150kts
Departed: 16-Feb-19 06:26 PM
Arrived: 16-Feb-19 07:10 PM
Distance/Time
Traveled:
25nm/0:44
Distance/Time
To Go:
Arrived

Flight Plot

Page will automatically refresh every two minutes.


Map Options




Map Legend


Flown Route
Filed Route
Departure Airport
Arrival Airport
Navaid (VOR, NDB)
Fix

Horizontal Profiles

Position Reports

Time Latitude Longitude Heading Altitude Ground
Speed
16-Feb-19 17:40 34.205285 -118.487720 315 806ft 0kts
16-Feb-19 17:41 34.205285 -118.487720 315 806ft 0kts
16-Feb-19 17:42 34.205285 -118.487720 315 806ft 0kts
16-Feb-19 17:43 34.205285 -118.487720 315 806ft 0kts
16-Feb-19 17:44 34.205285 -118.487720 315 806ft 0kts
16-Feb-19 17:45 34.205285 -118.487720 315 806ft 0kts
16-Feb-19 17:46 34.205285 -118.487720 315 806ft 0kts
16-Feb-19 17:47 34.205285 -118.487720 315 806ft 0kts
16-Feb-19 17:48 34.205286 -118.487720 315 806ft 0kts
16-Feb-19 17:49 34.205286 -118.487720 315 806ft 0kts
16-Feb-19 17:50 34.205286 -118.487720 315 806ft 0kts
16-Feb-19 17:51 34.205286 -118.487720 315 806ft 0kts
16-Feb-19 17:52 34.205286 -118.487720 315 806ft 0kts
16-Feb-19 17:53 34.205286 -118.487720 315 806ft 0kts
16-Feb-19 17:54 34.205286 -118.487720 315 806ft 0kts
16-Feb-19 17:55 34.205286 -118.487720 315 806ft 0kts
16-Feb-19 17:56 34.205286 -118.487720 315 806ft 0kts
16-Feb-19 17:57 34.205286 -118.487720 315 806ft 0kts
16-Feb-19 17:58 34.205286 -118.487720 315 806ft 0kts
16-Feb-19 17:59 34.205286 -118.487720 315 806ft 0kts
16-Feb-19 18:00 34.205286 -118.487720 315 806ft 0kts
16-Feb-19 18:01 34.205286 -118.487720 315 806ft 0kts
16-Feb-19 18:02 34.205286 -118.487720 315 806ft 0kts
16-Feb-19 18:03 34.205286 -118.487720 315 806ft 0kts
16-Feb-19 18:04 34.205286 -118.487720 315 806ft 0kts
16-Feb-19 18:05 34.205286 -118.487720 315 806ft 0kts
16-Feb-19 18:06 34.205286 -118.487720 315 806ft 0kts
16-Feb-19 18:07 34.205286 -118.487720 315 806ft 0kts
16-Feb-19 18:08 34.205286 -118.487720 315 806ft 0kts
16-Feb-19 18:09 34.205286 -118.487720 315 806ft 0kts
16-Feb-19 18:10 34.205286 -118.487720 315 806ft 0kts
16-Feb-19 18:11 34.205286 -118.487720 315 806ft 0kts
16-Feb-19 18:12 34.205286 -118.487720 315 806ft 0kts
16-Feb-19 18:13 34.206714 -118.488323 9 806ft 10kts
16-Feb-19 18:14 34.206762 -118.488310 15 806ft 0kts
16-Feb-19 18:15 34.206762 -118.488310 15 806ft 0kts
16-Feb-19 18:16 34.206762 -118.488310 15 806ft 0kts
16-Feb-19 18:17 34.206762 -118.488310 15 806ft 0kts
16-Feb-19 18:18 34.206762 -118.488310 15 806ft 0kts
16-Feb-19 18:19 34.206762 -118.488310 15 806ft 0kts
16-Feb-19 18:20 34.206762 -118.488310 15 806ft 0kts
16-Feb-19 18:21 34.206762 -118.488310 15 806ft 0kts
16-Feb-19 18:22 34.206762 -118.488310 15 806ft 0kts
16-Feb-19 18:23 34.206762 -118.488310 15 806ft 0kts
16-Feb-19 18:24 34.206951 -118.488282 4 806ft 9kts
16-Feb-19 18:25 34.213600 -118.488677 355 806ft 44kts
16-Feb-19 18:26 34.218790 -118.489547 325 806ft 0kts
16-Feb-19 18:27 34.218790 -118.489547 325 806ft 0kts
16-Feb-19 18:28 34.218790 -118.489547 325 806ft 0kts
16-Feb-19 18:29 34.218790 -118.489547 325 806ft 0kts
16-Feb-19 18:30 34.218795 -118.489551 325 806ft 0kts
16-Feb-19 18:31 34.216165 -118.489825 175 806ft 73kts
16-Feb-19 18:32 34.190071 -118.485812 175 1600ft 149kts
16-Feb-19 18:33 34.157795 -118.464547 120 1982ft 186kts
16-Feb-19 18:34 34.161508 -118.421186 72 2792ft 181kts
16-Feb-19 18:35 34.169308 -118.377974 76 3524ft 184kts
16-Feb-19 18:36 34.172136 -118.331410 99 3998ft 202kts
16-Feb-19 18:37 34.158872 -118.283087 108 3993ft 218kts
16-Feb-19 18:38 34.143934 -118.233229 109 3974ft 206kts
16-Feb-19 18:39 34.130942 -118.189651 110 4415ft 158kts
16-Feb-19 18:40 34.120339 -118.154156 112 4898ft 151kts
16-Feb-19 18:41 34.106327 -118.107597 113 5004ft 204kts
16-Feb-19 18:42 34.090493 -118.055298 114 5068ft 208kts
16-Feb-19 18:43 34.074554 -118.003483 114 5000ft 208kts
16-Feb-19 18:44 34.058913 -117.952596 114 5001ft 206kts
16-Feb-19 18:45 34.043773 -117.903556 113 5003ft 208kts
16-Feb-19 18:46 34.029314 -117.856791 113 5005ft 209kts
16-Feb-19 18:47 33.999972 -117.829040 191 5004ft 183kts
16-Feb-19 18:48 33.963200 -117.843048 207 5007ft 179kts
16-Feb-19 18:49 33.928327 -117.859867 208 4567ft 172kts
16-Feb-19 18:50 33.897353 -117.874738 208 3992ft 137kts
16-Feb-19 18:51 33.871098 -117.876902 181 4022ft 132kts
16-Feb-19 18:52 33.841621 -117.873922 181 3980ft 143kts
16-Feb-19 18:53 33.807787 -117.870749 182 3985ft 144kts
16-Feb-19 18:54 33.778435 -117.868235 181 3987ft 145kts
16-Feb-19 18:55 33.749880 -117.866012 181 3990ft 146kts
16-Feb-19 18:56 33.721192 -117.863953 186 3987ft 145kts
16-Feb-19 18:58 33.715838 -117.892119 313 3735ft 148kts
16-Feb-19 18:59 33.715173 -117.933946 267 3534ft 143kts
16-Feb-19 19:00 33.713818 -117.975838 268 3348ft 143kts
16-Feb-19 19:01 33.712508 -118.015467 268 3187ft 141kts
16-Feb-19 19:02 33.710332 -118.061867 264 2444ft 164kts
16-Feb-19 19:03 33.706366 -118.118670 266 1984ft 144kts
16-Feb-19 19:04 33.703170 -118.167212 264 1992ft 130kts
16-Feb-19 19:05 33.714481 -118.204717 302 1992ft 133kts
16-Feb-19 19:06 33.733092 -118.232772 303 1996ft 138kts
16-Feb-19 19:07 33.753417 -118.263375 303 1792ft 160kts
16-Feb-19 19:08 33.778725 -118.301420 303 913ft 179kts
16-Feb-19 19:09 33.795531 -118.326799 300 303ft 86kts
16-Feb-19 19:10 33.803880 -118.339442 305 107ft 28kts

Navigation Log

Ident Type
Flight plan parsing failed, navigation log unavailable